createdAt,value
2017-11-17T00:00:35.598Z,45.67
2017-11-17T00:03:03.075Z,43.50
2017-11-17T00:05:30.522Z,49.92
2017-11-17T00:07:58.093Z,46.60
2017-11-17T00:10:25.541Z,47.35
2017-11-17T00:12:53.018Z,41.85
2017-11-17T00:15:20.562Z,44.65
2017-11-17T00:17:48.009Z,43.47
2017-11-17T00:20:15.585Z,44.78
2017-11-17T00:22:43.035Z,50.28
2017-11-17T00:25:10.486Z,48.55
2017-11-17T00:27:38.048Z,39.08
2017-11-17T00:30:05.512Z,47.70
2017-11-17T00:32:32.965Z,40.90
2017-11-17T00:35:00.522Z,42.95
2017-11-17T00:37:28.073Z,43.38
2017-11-17T00:39:55.529Z,42.42
2017-11-17T00:42:22.971Z,45.00
2017-11-17T00:44:50.446Z,55.95
2017-11-17T00:47:18.006Z,55.53
2017-11-17T00:49:45.470Z,49.47
2017-11-17T00:52:13.018Z,57.00
2017-11-17T00:54:40.591Z,46.83
2017-11-17T00:57:08.039Z,41.92
2017-11-17T00:59:35.494Z,45.63
2017-11-17T01:02:03.061Z,35.80
2017-11-17T01:04:30.611Z,40.17
2017-11-17T01:06:58.170Z,46.20
2017-11-17T01:09:25.638Z,42.10
2017-11-17T01:11:53.074Z,41.10
2017-11-17T01:14:20.536Z,46.53
2017-11-17T01:16:47.988Z,43.60
2017-11-17T01:19:15.438Z,47.13
2017-11-17T01:21:42.899Z,47.58
2017-11-17T01:24:10.347Z,50.75
2017-11-17T01:26:37.824Z,50.85
2017-11-17T01:29:05.271Z,45.17
2017-11-17T01:31:32.727Z,53.95
2017-11-17T01:34:00.174Z,42.70
2017-11-17T01:36:27.650Z,52.53
2017-11-17T01:38:55.210Z,53.38
2017-11-17T01:41:22.666Z,43.28
2017-11-17T01:43:50.115Z,44.75
2017-11-17T01:46:17.574Z,45.35
2017-11-17T01:48:45.039Z,45.30
2017-11-17T01:51:12.494Z,47.60
2017-11-17T01:53:40.054Z,44.60
2017-11-17T01:56:07.611Z,44.58
2017-11-17T01:58:35.054Z,48.83
2017-11-17T02:01:02.515Z,47.03
2017-11-17T02:03:29.967Z,44.05
2017-11-17T02:05:57.439Z,38.40
2017-11-17T02:08:24.883Z,50.12
2017-11-17T02:10:52.334Z,49.90
2017-11-17T02:13:19.810Z,43.90
2017-11-17T02:15:47.289Z,49.50
2017-11-17T02:18:14.823Z,46.10
2017-11-17T02:20:42.275Z,41.30
2017-11-17T02:23:09.728Z,41.20
2017-11-17T02:25:37.195Z,45.45
2017-11-17T02:28:04.656Z,45.25
2017-11-17T02:30:32.093Z,45.55
2017-11-17T02:32:59.663Z,41.75
2017-11-17T02:35:27.225Z,46.28
2017-11-17T02:37:54.679Z,47.10
2017-11-17T02:40:22.122Z,46.37
2017-11-17T02:42:49.578Z,47.78
2017-11-17T02:45:17.056Z,38.65
2017-11-17T02:47:44.510Z,43.13
2017-11-17T02:50:11.967Z,48.92
2017-11-17T02:52:39.522Z,42.62
2017-11-17T02:55:07.078Z,43.28
2017-11-17T02:57:34.538Z,42.88
2017-11-17T03:00:01.999Z,42.95
2017-11-17T03:02:29.450Z,48.33
2017-11-17T03:04:56.900Z,41.53
2017-11-17T03:07:24.351Z,51.83
2017-11-17T03:09:51.829Z,44.75
2017-11-17T03:12:19.270Z,53.63
2017-11-17T03:14:46.723Z,51.30
2017-11-17T03:17:14.175Z,47.40
2017-11-17T03:19:41.628Z,49.97
2017-11-17T03:22:09.073Z,44.83
2017-11-17T03:24:36.530Z,58.80
2017-11-17T03:27:04.987Z,49.85
2017-11-17T03:29:33.215Z,51.42
2017-11-17T03:32:00.663Z,51.65
2017-11-17T03:34:28.114Z,56.80
2017-11-17T03:36:55.586Z,57.88
2017-11-17T03:39:23.146Z,58.08
2017-11-17T03:41:50.703Z,55.67
2017-11-17T03:44:18.263Z,50.12
2017-11-17T03:46:45.819Z,60.42
2017-11-17T03:49:14.306Z,70.20
2017-11-17T03:51:41.756Z,58.00
2017-11-17T03:54:09.231Z,67.35
2017-11-17T03:56:36.670Z,70.47
2017-11-17T03:59:04.242Z,64.55
2017-11-17T04:01:31.699Z,70.90
2017-11-17T04:03:59.147Z,72.87
2017-11-17T04:06:26.602Z,59.85
2017-11-17T04:08:54.046Z,53.00
2017-11-17T04:11:21.614Z,55.53
2017-11-17T04:13:49.174Z,59.22
2017-11-17T04:16:20.653Z,52.10
2017-11-17T04:18:48.186Z,49.72
2017-11-17T04:21:15.643Z,50.30
2017-11-17T04:23:43.198Z,61.13
2017-11-17T04:26:10.654Z,52.20
2017-11-17T04:28:38.106Z,60.60
2017-11-17T04:31:05.562Z,57.55
2017-11-17T04:33:33.019Z,49.05
2017-11-17T04:36:00.883Z,63.67
2017-11-17T04:38:28.330Z,54.25
2017-11-17T04:40:55.801Z,49.72
2017-11-17T04:43:23.363Z,51.47
2017-11-17T04:45:50.809Z,55.33
2017-11-17T04:48:18.262Z,55.90
2017-11-17T04:50:45.713Z,52.10
2017-11-17T04:53:13.186Z,48.17
2017-11-17T04:55:40.632Z,57.45
2017-11-17T04:58:08.095Z,59.85
2017-11-17T05:00:35.543Z,63.30
2017-11-17T05:03:03.011Z,60.00
2017-11-17T05:05:30.473Z,54.47
2017-11-17T05:07:58.024Z,60.63
2017-11-17T05:10:25.474Z,49.60
2017-11-17T05:12:52.948Z,51.35
2017-11-17T05:15:20.395Z,56.00
2017-11-17T05:17:47.863Z,49.88
2017-11-17T05:20:15.311Z,51.37
2017-11-17T05:22:42.767Z,51.00
2017-11-17T05:25:10.220Z,55.47
2017-11-17T05:27:37.848Z,53.58
2017-11-17T05:30:06.010Z,46.35
2017-11-17T05:32:34.275Z,49.47
2017-11-17T05:35:02.486Z,54.42
2017-11-17T05:37:29.969Z,55.72
2017-11-17T05:39:57.423Z,54.67
2017-11-17T05:42:24.866Z,60.05
2017-11-17T05:44:52.327Z,54.45
2017-11-17T05:47:19.779Z,58.47
2017-11-17T05:49:47.254Z,53.85
2017-11-17T05:52:14.702Z,57.55
2017-11-17T05:54:42.267Z,64.60
2017-11-17T05:57:09.715Z,58.22
2017-11-17T05:59:37.282Z,61.15
2017-11-17T06:02:04.740Z,70.18
2017-11-17T06:04:32.190Z,67.32
2017-11-17T06:06:59.639Z,67.68
2017-11-17T06:09:27.120Z,69.10
2017-11-17T06:11:54.565Z,69.03
2017-11-17T06:14:22.023Z,64.05
2017-11-17T06:16:49.478Z,69.15
2017-11-17T06:19:16.926Z,70.72
2017-11-17T06:21:44.498Z,67.60
2017-11-17T06:24:11.948Z,83.32
2017-11-17T06:26:39.403Z,76.90
2017-11-17T06:29:06.862Z,80.57
2017-11-17T06:31:34.311Z,67.85
2017-11-17T06:34:01.767Z,77.65
2017-11-17T06:36:29.242Z,79.43
2017-11-17T06:38:56.693Z,73.03
2017-11-17T06:41:24.148Z,63.33
2017-11-17T06:43:51.610Z,80.00
2017-11-17T06:46:19.066Z,67.10
2017-11-17T06:48:46.510Z,84.47
2017-11-17T06:51:13.963Z,68.30
2017-11-17T06:53:41.438Z,75.93
2017-11-17T06:56:08.895Z,66.32
2017-11-17T06:58:38.162Z,82.47
2017-11-17T07:01:05.745Z,69.57
2017-11-17T07:03:33.305Z,76.32
2017-11-17T07:06:00.763Z,73.20
2017-11-17T07:08:28.214Z,72.43
2017-11-17T07:10:55.667Z,77.82
2017-11-17T07:13:23.124Z,75.95
2017-11-17T07:15:50.566Z,90.78
2017-11-17T07:18:18.027Z,84.70
2017-11-17T07:20:45.478Z,79.75
2017-11-17T07:23:12.959Z,84.43
2017-11-17T07:25:40.407Z,74.00
2017-11-17T07:28:07.858Z,74.97
2017-11-17T07:30:35.318Z,74.18
2017-11-17T07:33:02.774Z,83.68
2017-11-17T07:35:30.234Z,70.03
2017-11-17T07:37:57.691Z,71.37
2017-11-17T07:40:25.159Z,78.28
2017-11-17T07:42:52.933Z,79.30
2017-11-17T07:45:20.387Z,82.82
2017-11-17T07:47:47.851Z,81.68
2017-11-17T07:50:15.295Z,69.45
2017-11-17T07:52:42.749Z,87.70
2017-11-17T07:55:10.194Z,90.35
2017-11-17T07:57:37.665Z,79.37
2017-11-17T08:00:05.116Z,70.03
2017-11-17T08:02:32.562Z,82.88
2017-11-17T08:05:00.016Z,86.87
2017-11-17T08:07:27.462Z,89.10
2017-11-17T08:09:54.940Z,73.55
2017-11-17T08:12:22.392Z,73.75
2017-11-17T08:14:49.963Z,79.50
2017-11-17T08:17:24.047Z,81.75
2017-11-17T08:19:51.498Z,74.90
2017-11-17T08:22:18.955Z,72.70
2017-11-17T08:24:46.409Z,69.60
2017-11-17T08:27:13.862Z,69.82
2017-11-17T08:29:41.310Z,82.78
2017-11-17T08:32:08.762Z,73.62
2017-11-17T08:34:36.265Z,75.25
2017-11-17T08:37:03.726Z,80.87
2017-11-17T08:39:31.178Z,81.60
2017-11-17T08:41:58.635Z,81.18
2017-11-17T08:44:26.096Z,72.85
2017-11-17T08:46:53.647Z,86.03
2017-11-17T08:49:21.239Z,78.03
2017-11-17T08:51:48.690Z,86.47
2017-11-17T08:54:16.140Z,77.75
2017-11-17T08:56:43.595Z,81.97
2017-11-17T08:59:11.053Z,90.18
2017-11-17T09:01:38.595Z,83.32
2017-11-17T09:04:06.157Z,79.95
2017-11-17T09:06:33.614Z,82.00
2017-11-17T09:09:01.072Z,82.75
2017-11-17T09:11:28.531Z,83.20
2017-11-17T09:13:56.091Z,72.97
2017-11-17T09:16:23.551Z,90.15
2017-11-17T09:18:50.996Z,97.80
2017-11-17T09:21:18.562Z,103.12
2017-11-17T09:23:46.120Z,106.95
2017-11-17T09:26:13.574Z,95.68
2017-11-17T09:28:41.028Z,98.60
2017-11-17T09:31:08.491Z,87.57
2017-11-17T09:33:35.935Z,85.18
2017-11-17T09:36:03.397Z,105.03
2017-11-17T09:38:30.847Z,79.62
2017-11-17T09:40:58.302Z,89.87
2017-11-17T09:43:25.766Z,97.80
2017-11-17T09:45:53.218Z,92.70
2017-11-17T09:48:20.680Z,91.95
2017-11-17T09:50:48.140Z,84.72
2017-11-17T09:53:15.595Z,98.78
2017-11-17T09:55:43.044Z,87.03
2017-11-17T09:58:10.614Z,99.65
2017-11-17T10:00:38.064Z,97.62
2017-11-17T10:03:05.520Z,89.28
2017-11-17T10:05:32.967Z,85.62
2017-11-17T10:08:00.426Z,99.28
2017-11-17T10:10:27.875Z,97.82
2017-11-17T10:12:55.326Z,84.70
2017-11-17T10:15:22.779Z,78.85
2017-11-17T10:17:50.342Z,85.05
2017-11-17T10:20:17.793Z,91.63
2017-11-17T10:22:45.282Z,79.70
2017-11-17T10:25:12.840Z,94.30
2017-11-17T10:27:40.395Z,77.65
2017-11-17T10:30:07.854Z,91.32
2017-11-17T10:32:35.303Z,92.28
2017-11-17T10:35:02.763Z,82.22
2017-11-17T10:37:30.202Z,80.05
2017-11-17T10:39:57.682Z,95.25
2017-11-17T10:42:25.234Z,92.12
2017-11-17T10:44:52.794Z,80.50
2017-11-17T10:47:20.247Z,88.25
2017-11-17T10:49:47.705Z,79.60
2017-11-17T10:52:15.167Z,83.70
2017-11-17T10:54:42.726Z,69.45
2017-11-17T10:57:10.171Z,51.55
2017-11-17T10:59:39.487Z,64.85
2017-11-17T11:02:06.935Z,70.57
2017-11-17T11:04:34.387Z,64.95
2017-11-17T11:07:04.693Z,86.72
2017-11-17T11:09:32.139Z,71.62
2017-11-17T11:11:59.586Z,80.30
2017-11-17T11:14:27.044Z,61.67
2017-11-17T11:16:54.495Z,69.87
2017-11-17T11:19:21.962Z,74.37
2017-11-17T11:21:49.405Z,77.40
2017-11-17T11:24:17.632Z,73.72
2017-11-17T11:26:45.190Z,70.30
2017-11-17T11:29:12.638Z,67.95
2017-11-17T11:31:40.099Z,81.82
2017-11-17T11:34:07.539Z,75.97
2017-11-17T11:36:35.003Z,78.15
2017-11-17T11:39:02.454Z,72.00
2017-11-17T11:41:29.907Z,73.12
2017-11-17T11:43:57.350Z,74.43
2017-11-17T11:46:24.847Z,99.53
2017-11-17T11:48:52.302Z,60.80
2017-11-17T11:51:19.759Z,85.43
2017-11-17T11:53:47.211Z,86.37
2017-11-17T11:56:14.674Z,73.53
2017-11-17T11:58:42.120Z,74.72
2017-11-17T12:01:09.571Z,65.85
2017-11-17T12:03:37.024Z,79.35
2017-11-17T12:06:04.502Z,68.37
2017-11-17T12:08:31.951Z,56.53
2017-11-17T12:10:59.411Z,77.50
2017-11-17T12:13:26.878Z,86.32
2017-11-17T12:15:54.338Z,85.87
2017-11-17T12:18:21.782Z,70.75
2017-11-17T12:20:49.246Z,75.47
2017-11-17T12:23:16.794Z,81.80
2017-11-17T12:25:44.355Z,78.07
2017-11-17T12:28:11.923Z,62.62
2017-11-17T12:30:39.370Z,79.70
2017-11-17T12:33:06.935Z,80.47
2017-11-17T12:35:34.375Z,83.82
2017-11-17T12:38:01.846Z,90.35
2017-11-17T12:40:29.293Z,88.55
2017-11-17T12:42:56.863Z,76.97
2017-11-17T12:45:24.423Z,76.85
2017-11-17T12:47:51.979Z,78.57
2017-11-17T12:50:19.538Z,69.90
2017-11-17T12:52:46.991Z,78.97
2017-11-17T12:55:14.438Z,75.35
2017-11-17T12:57:42.005Z,81.70
2017-11-17T13:00:09.453Z,70.45
2017-11-17T13:02:36.906Z,59.55
2017-11-17T13:05:04.354Z,53.50
2017-11-17T13:07:31.811Z,64.47
2017-11-17T13:09:59.261Z,55.83
2017-11-17T13:12:26.758Z,64.22
2017-11-17T13:14:54.208Z,76.03
2017-11-17T13:17:21.668Z,53.85
2017-11-17T13:19:49.116Z,61.47
2017-11-17T13:22:16.571Z,68.47
2017-11-17T13:24:44.140Z,63.55
2017-11-17T13:27:11.588Z,94.20
2017-11-17T13:29:39.147Z,78.90
2017-11-17T13:32:06.600Z,79.87
2017-11-17T13:34:34.060Z,72.03
2017-11-17T13:37:01.507Z,64.32
2017-11-17T13:39:28.971Z,70.75
2017-11-17T13:42:03.930Z,71.70
2017-11-17T13:44:31.498Z,67.55
2017-11-17T13:46:58.949Z,64.47
2017-11-17T13:49:26.582Z,86.20
2017-11-17T13:51:54.030Z,72.53
2017-11-17T13:54:21.487Z,67.70
2017-11-17T13:56:48.931Z,75.03
2017-11-17T13:59:16.603Z,67.25
2017-11-17T14:01:44.079Z,68.37
2017-11-17T14:04:11.635Z,68.30
2017-11-17T14:06:39.089Z,71.10
2017-11-17T14:09:06.652Z,59.42
2017-11-17T14:11:34.100Z,55.50
2017-11-17T14:14:01.554Z,50.42
2017-11-17T14:16:29.001Z,53.67
2017-11-17T14:18:56.481Z,53.65
2017-11-17T14:21:23.930Z,55.78
2017-11-17T14:23:51.488Z,55.08
2017-11-17T14:26:18.947Z,51.78
2017-11-17T14:28:46.515Z,47.95
2017-11-17T14:31:14.069Z,50.17
2017-11-17T14:33:41.510Z,51.42
2017-11-17T14:36:08.967Z,47.33
2017-11-17T14:38:36.439Z,48.22
2017-11-17T14:41:04.000Z,58.05
2017-11-17T14:43:31.450Z,50.92
2017-11-17T14:45:58.902Z,58.15
2017-11-17T14:48:26.355Z,58.58
2017-11-17T14:50:53.817Z,65.45
2017-11-17T14:53:21.268Z,70.70
2017-11-17T14:55:48.721Z,73.95
2017-11-17T14:58:16.171Z,77.95
2017-11-17T15:00:43.630Z,78.85
2017-11-17T15:03:11.081Z,71.25
2017-11-17T15:05:38.540Z,75.12
2017-11-17T15:08:05.991Z,79.97
2017-11-17T15:10:33.446Z,86.15
2017-11-17T15:13:00.907Z,80.90
2017-11-17T15:15:28.462Z,70.00
2017-11-17T15:17:55.907Z,85.55
2017-11-17T15:20:23.358Z,81.97
2017-11-17T15:22:50.814Z,83.90
2017-11-17T15:25:18.264Z,91.28
2017-11-17T15:27:46.483Z,86.57
2017-11-17T15:30:13.951Z,86.75
2017-11-17T15:32:41.514Z,98.90
2017-11-17T15:35:08.964Z,100.28
2017-11-17T15:37:36.423Z,96.05
2017-11-17T15:40:03.871Z,92.78
2017-11-17T15:42:31.329Z,102.40
2017-11-17T15:44:58.778Z,95.68
2017-11-17T15:47:26.231Z,97.72
2017-11-17T15:49:53.682Z,111.15
2017-11-17T15:52:21.364Z,109.95
2017-11-17T15:54:48.817Z,103.18
2017-11-17T15:57:16.383Z,96.07
2017-11-17T15:59:43.830Z,111.53
2017-11-17T16:02:11.292Z,125.32
2017-11-17T16:04:38.850Z,111.28
2017-11-17T16:07:06.618Z,99.80
2017-11-17T16:09:34.067Z,112.12
2017-11-17T16:12:01.528Z,107.72
2017-11-17T16:14:28.974Z,101.50
2017-11-17T16:16:56.446Z,97.15
2017-11-17T16:19:23.897Z,104.93
2017-11-17T16:21:51.354Z,119.40
2017-11-17T16:24:18.922Z,123.07
2017-11-17T16:26:46.374Z,112.72
2017-11-17T16:29:13.826Z,105.12
2017-11-17T16:31:41.289Z,109.90
2017-11-17T16:34:08.747Z,103.47
2017-11-17T16:36:36.202Z,104.30
2017-11-17T16:39:03.669Z,103.72
2017-11-17T16:41:31.932Z,108.72
2017-11-17T16:43:59.394Z,116.10
2017-11-17T16:46:26.851Z,112.07
2017-11-17T16:48:54.311Z,117.10
2017-11-17T16:51:21.757Z,107.32
2017-11-17T16:53:49.224Z,120.20
2017-11-17T16:56:16.673Z,109.55
2017-11-17T16:58:44.236Z,109.63
2017-11-17T17:01:11.683Z,99.25
2017-11-17T17:03:39.144Z,105.63
2017-11-17T17:06:06.595Z,101.45
2017-11-17T17:08:34.071Z,101.97
2017-11-17T17:11:01.520Z,105.60
2017-11-17T17:13:28.966Z,97.90
2017-11-17T17:15:56.422Z,95.75
2017-11-17T17:18:23.871Z,80.93
2017-11-17T17:20:51.332Z,69.55
2017-11-17T17:23:18.782Z,80.72
2017-11-17T17:25:46.243Z,87.70
2017-11-17T17:28:13.690Z,86.35
2017-11-17T17:30:41.167Z,86.97
2017-11-17T17:33:08.618Z,86.43
2017-11-17T17:35:36.087Z,95.60
2017-11-17T17:38:03.642Z,92.30
2017-11-17T17:40:31.098Z,78.18
2017-11-17T17:42:58.559Z,86.95
2017-11-17T17:45:26.110Z,76.25
2017-11-17T17:47:53.566Z,95.60
2017-11-17T17:50:21.131Z,101.75
2017-11-17T17:52:48.582Z,88.20
2017-11-17T17:55:16.034Z,112.82
2017-11-17T17:57:43.486Z,91.00
2017-11-17T18:00:11.058Z,117.22
2017-11-17T18:02:38.510Z,103.03
2017-11-17T18:05:06.181Z,119.07
2017-11-17T18:07:33.630Z,124.57
2017-11-17T18:10:01.078Z,117.60
2017-11-17T18:12:28.542Z,108.37
2017-11-17T18:14:55.996Z,117.28
2017-11-17T18:17:23.450Z,109.15
2017-11-17T18:19:50.904Z,119.80
2017-11-17T18:22:18.496Z,102.90
2017-11-17T18:24:46.033Z,121.95
2017-11-17T18:27:13.522Z,118.32
2017-11-17T18:29:40.946Z,130.57
2017-11-17T18:32:08.403Z,125.32
2017-11-17T18:34:35.991Z,130.25
2017-11-17T18:37:03.530Z,130.43
2017-11-17T18:39:30.978Z,118.65
2017-11-17T18:41:58.439Z,122.28
2017-11-17T18:44:25.906Z,152.57
2017-11-17T18:46:53.460Z,129.12
2017-11-17T18:49:20.938Z,135.95
2017-11-17T18:51:48.501Z,128.07
2017-11-17T18:54:15.960Z,111.97
2017-11-17T18:56:43.452Z,137.55
2017-11-17T18:59:10.963Z,125.78
2017-11-17T19:01:38.395Z,125.90
2017-11-17T19:04:05.957Z,135.57
2017-11-17T19:06:33.410Z,125.28
2017-11-17T19:09:00.886Z,100.35
2017-11-17T19:11:28.327Z,116.28
2017-11-17T19:13:55.790Z,110.35
2017-11-17T19:16:23.238Z,128.50
2017-11-17T19:18:50.708Z,119.40
2017-11-17T19:21:18.255Z,118.43
2017-11-17T19:23:45.719Z,114.70
2017-11-17T19:26:13.167Z,99.30
2017-11-17T19:28:40.623Z,113.43
2017-11-17T19:31:08.184Z,106.75
2017-11-17T19:33:35.642Z,122.95
2017-11-17T19:36:03.138Z,135.10
2017-11-17T19:38:31.373Z,124.82
2017-11-17T19:40:58.830Z,125.22
2017-11-17T19:43:26.290Z,137.18
2017-11-17T19:45:53.742Z,141.52
2017-11-17T19:48:21.200Z,131.90
2017-11-17T19:50:48.814Z,139.40
2017-11-17T19:53:16.314Z,144.90
2017-11-17T19:55:43.770Z,113.35
2017-11-17T19:58:11.435Z,136.37
2017-11-17T20:00:39.002Z,126.18
2017-11-17T20:03:06.467Z,127.57
2017-11-17T20:05:33.970Z,125.30
2017-11-17T20:08:01.471Z,120.03
2017-11-17T20:10:28.977Z,127.07
2017-11-17T20:12:57.178Z,114.57
2017-11-17T20:15:24.634Z,123.25
2017-11-17T20:17:52.114Z,102.05
2017-11-17T20:20:19.574Z,122.00
2017-11-17T20:22:47.035Z,112.35
2017-11-17T20:25:14.502Z,106.12
2017-11-17T20:27:41.953Z,114.60
2017-11-17T20:30:09.417Z,114.35
2017-11-17T20:32:36.874Z,98.40
2017-11-17T20:35:04.320Z,116.82
2017-11-17T20:37:31.775Z,108.65
2017-11-17T20:39:59.282Z,112.37
2017-11-17T20:42:26.779Z,121.78
2017-11-17T20:44:54.350Z,109.72
2017-11-17T20:47:21.789Z,98.55
2017-11-17T20:49:49.252Z,110.97
2017-11-17T20:52:16.694Z,116.70
2017-11-17T20:54:44.226Z,116.20
2017-11-17T20:57:11.671Z,110.18
2017-11-17T20:59:39.118Z,120.37
2017-11-17T21:02:07.339Z,109.12
2017-11-17T21:04:34.795Z,110.25
2017-11-17T21:07:02.307Z,126.15
2017-11-17T21:09:30.525Z,112.53
2017-11-17T21:11:58.036Z,114.80
2017-11-17T21:14:26.280Z,109.40
2017-11-17T21:16:53.790Z,98.30
2017-11-17T21:19:21.236Z,70.78
2017-11-17T21:21:49.567Z,86.10
2017-11-17T21:24:17.016Z,91.87
2017-11-17T21:26:44.466Z,98.57
2017-11-17T21:29:11.919Z,83.35
2017-11-17T21:31:39.380Z,92.37
2017-11-17T21:34:06.834Z,84.80
2017-11-17T21:36:34.344Z,85.75
2017-11-17T21:39:02.583Z,100.93
2017-11-17T21:41:30.043Z,122.72
2017-11-17T21:43:57.511Z,115.75
2017-11-17T21:46:24.991Z,106.43
2017-11-17T21:48:52.426Z,88.55
2017-11-17T21:51:19.890Z,86.97
2017-11-17T21:53:48.137Z,83.05
2017-11-17T21:56:15.701Z,87.20
2017-11-17T21:58:43.149Z,107.40
2017-11-17T22:02:37.087Z,91.50
2017-11-17T22:05:04.534Z,102.03
2017-11-17T22:07:32.866Z,98.45
2017-11-17T22:10:00.436Z,100.00
2017-11-17T22:12:27.890Z,116.90
2017-11-17T22:14:55.348Z,133.00
2017-11-17T22:17:22.802Z,137.73
2017-11-17T22:19:50.259Z,164.77
2017-11-17T22:22:17.715Z,152.40
2017-11-17T22:24:45.277Z,115.32
2017-11-17T22:27:12.736Z,110.65
2017-11-17T22:29:40.187Z,134.43
2017-11-17T22:32:07.670Z,114.12
2017-11-17T22:34:35.118Z,140.07
2017-11-17T22:37:02.571Z,138.45
2017-11-17T22:39:30.034Z,140.37
2017-11-17T22:41:57.477Z,110.18
2017-11-17T22:44:24.943Z,117.57
2017-11-17T22:46:52.395Z,116.82
2017-11-17T22:49:19.851Z,117.45
2017-11-17T22:51:47.311Z,119.90
2017-11-17T22:54:14.850Z,111.12
2017-11-17T22:56:42.307Z,122.85
2017-11-17T22:59:09.806Z,121.78
2017-11-17T23:01:37.214Z,116.80
2017-11-17T23:04:04.682Z,112.68
2017-11-17T23:06:32.137Z,106.72
2017-11-17T23:08:59.699Z,107.68
2017-11-17T23:11:27.144Z,123.22
2017-11-17T23:13:54.621Z,120.05
2017-11-17T23:16:22.079Z,118.90
2017-11-17T23:18:49.632Z,125.60
2017-11-17T23:21:17.086Z,114.18
2017-11-17T23:23:44.543Z,143.27
2017-11-17T23:26:12.002Z,130.35
2017-11-17T23:28:39.462Z,133.95
2017-11-17T23:31:06.935Z,137.70
2017-11-17T23:33:34.384Z,144.55
2017-11-17T23:36:01.843Z,141.15
2017-11-17T23:38:29.295Z,113.35
2017-11-17T23:40:56.755Z,122.35
2017-11-17T23:43:24.209Z,122.95
2017-11-17T23:45:51.762Z,123.93
2017-11-17T23:48:19.311Z,113.35
2017-11-17T23:50:46.773Z,122.37
2017-11-17T23:53:14.227Z,121.60
2017-11-17T23:55:41.695Z,115.65
2017-11-17T23:58:10.647Z,121.70
